Flight Track Log - Related Links

Times and Time Zones

All times are in EDT time to prevent confusion due to time zone crossing. See the N626JS flight status page for this flight to view local times or setup timezone preferences in your user account.

Time Position Orientation Groundspeed Altitude Reporting Facility
EDT Latitude Longitude Course Direction KTS MPH feet Rate Location/Type
Thu 02:25:48 PM 42.5220 -71.4190 310° West 4,800  Level FlightAware ADS-B
Thu 02:27:18 PM 42.6150 -71.4100 North 9,200 226 Climbing FlightAware ADS-B
Thu 02:27:58 PM 42.6510 -71.3420 54° Northeast 11,100 198 Climbing FlightAware ADS-B
Thu 02:28:43 PM 42.6930 -71.2650 53° Northeast 12,800 186 Climbing FlightAware ADS-B
Thu 02:28:58 PM 42.7190 -71.2500 23° Northeast 13,200 175 Climbing FlightAware ADS-B
Thu 02:29:28 PM 42.7700 -71.2570 354° North 13,900 172 Climbing FlightAware ADS-B
Thu 02:29:38 PM 42.7860 -71.2680 333° Northwest 14,200 168 Climbing FlightAware ADS-B
Thu 02:29:53 PM 42.8050 -71.2900 320° Northwest 14,800 166 Climbing FlightAware ADS-B
Thu 02:30:33 PM 42.8440 -71.3670 305° West 16,900 162 Climbing FlightAware ADS-B
Thu 02:31:18 PM 42.8670 -71.4620 288° West 18,700 148 Climbing FlightAware ADS-B
Thu 02:31:58 PM 42.8870 -71.5550 286° West 20,200 136 Climbing FlightAware ADS-B
Thu 02:32:38 PM 42.9100 -71.6480 289° West 21,900 126 Climbing FlightAware ADS-B
Thu 02:33:23 PM 42.9340 -71.7550 287° West 23,600 115 Climbing FlightAware ADS-B
Thu 02:34:03 PM 42.9700 -71.8440 299° West 25,100 103 Climbing FlightAware ADS-B
Thu 02:34:48 PM 43.0280 -71.9380 310° West 26,900 93 Climbing FlightAware ADS-B
Thu 02:35:28 PM 43.0750 -72.0100 312° West 28,300 80 Climbing FlightAware ADS-B
Thu 02:36:13 PM 43.1340 -72.1000 312° West 29,700 71 Climbing FlightAware ADS-B
Thu 02:36:53 PM 43.1940 -72.1890 313° West 30,100 61 Climbing FlightAware ADS-B
Thu 02:37:38 PM 43.2580 -72.2940 310° West 31,400 58 Climbing FlightAware ADS-B
Thu 02:38:08 PM 43.2890 -72.3700 299° West 32,300 49 Climbing FlightAware ADS-B
Thu 02:38:58 PM 43.3150 -72.5000 285° West 33,700 42 Climbing FlightAware ADS-B
Thu 02:39:43 PM 43.3360 -72.6170 284° West 35,200 32 Climbing FlightAware ADS-B
Thu 02:40:23 PM 43.3580 -72.7370 284° West 36,200 21 Climbing FlightAware ADS-B
Thu 02:41:08 PM 43.3770 -72.8500 283° West 37,200 14 Climbing FlightAware ADS-B
Thu 02:41:38 PM 43.3940 -72.9460 284° West 38,200 Climbing FlightAware ADS-B
Thu 02:42:28 PM 43.4170 -73.0680 285° West 38,500 -2 Climbing FlightAware ADS-B
Thu 02:43:28 PM 43.4470 -73.2390 284° West 39,100 -4 Climbing FlightAware ADS-B
Thu 02:43:58 PM 43.4600 -73.3140 283° West 39,400 -8 Climbing FlightAware ADS-B
Thu 02:44:43 PM 43.4840 -73.4510 284° West 39,700 -11 Climbing FlightAware ADS-B
Thu 02:45:28 PM 43.5080 -73.5900 283° West 40,100 -13 Climbing FlightAware ADS-B
Thu 02:46:28 PM 43.5350 -73.7470 283° West 40,000 -16 Descending FlightAware ADS-B
Thu 02:47:43 PM 43.5710 -73.9660 283° West 40,000 -16 Level FlightAware ADS-B
Thu 02:48:18 PM 43.5880 -74.0630 284° West 40,000 -16 Level FlightAware ADS-B
Thu 02:48:58 PM 43.6060 -74.1730 283° West 40,000 -16 Level FlightAware ADS-B
Thu 02:49:38 PM 43.6260 -74.2920 283° West 40,000 -16 Level FlightAware ADS-B
Thu 02:50:23 PM 43.6450 -74.4080 283° West 40,000 -16 Level FlightAware ADS-B
Thu 02:51:08 PM 43.6650 -74.5300 283° West 40,000 -16 Level FlightAware ADS-B
Thu 02:51:43 PM 43.6800 -74.6240 282° West 40,000 -16 Level FlightAware ADS-B
Thu 02:52:33 PM 43.7030 -74.7680 283° West 40,000 -17 Level FlightAware ADS-B
Thu 02:53:13 PM 43.7200 -74.8730 283° West 40,000 -17 Level FlightAware ADS-B
Thu 02:53:58 PM 43.7420 -75.0090 283° West 40,000 -17 Level FlightAware ADS-B
Thu 02:54:38 PM 43.7590 -75.1180 282° West 40,000 -17 Level FlightAware ADS-B
Thu 02:55:23 PM 43.7790 -75.2460 282° West 40,000 -17 Level FlightAware ADS-B
Thu 02:56:03 PM 43.7960 -75.3580 282° West 40,000 -17 Level FlightAware ADS-B
Thu 02:56:43 PM 43.8140 -75.4710 282° West 40,000 -17 Level FlightAware ADS-B
Thu 02:57:28 PM 43.8330 -75.5950 282° West 40,000 -17 Level FlightAware ADS-B
Thu 02:58:08 PM 43.8500 -75.7120 281° West 40,000 -17 Level FlightAware ADS-B
Thu 02:58:48 PM 43.8680 -75.8260 282° West 40,000 -17 Level FlightAware ADS-B
Thu 02:59:33 PM 43.8880 -75.9620 282° West 40,000 -18 Level FlightAware ADS-B
Thu 03:00:13 PM 43.9050 -76.0770 282° West 40,000 -18 Level FlightAware ADS-B
Thu 03:00:58 PM 43.9250 -76.2090 282° West 40,000 -18 Level FlightAware ADS-B
Thu 03:01:38 PM 43.9420 -76.3280 281° West 40,000 -18 Level FlightAware ADS-B
Thu 03:02:18 PM 43.9590 -76.4450 281° West 40,000 -18 Level FlightAware ADS-B
Thu 03:03:03 PM 43.9780 -76.5770 281° West 40,000 -18 Level FlightAware ADS-B
Thu 03:03:43 PM 43.9940 -76.6930 281° West 40,000 -18 Level FlightAware ADS-B
Thu 03:04:23 PM 44.0120 -76.8160 282° West 40,000 -18 Level FlightAware ADS-B
Thu 03:05:08 PM 44.0300 -76.9490 281° West 40,000 -18 Level FlightAware ADS-B
Thu 03:05:48 PM 44.0470 -77.0670 281° West 40,000 -19 Level FlightAware ADS-B
Thu 03:06:33 PM 44.0650 -77.2010 281° West 40,000 -19 Level FlightAware ADS-B
Thu 03:07:13 PM 44.0820 -77.3230 281° West 40,000 -19 Level FlightAware ADS-B
Thu 03:07:58 PM 44.1000 -77.4580 281° West 40,000 -19 Level FlightAware ADS-B
Thu 03:08:38 PM 44.1160 -77.5740 281° West 40,000 -19 Level FlightAware ADS-B
Thu 03:09:23 PM 44.1340 -77.7160 280° West 40,000 -19 Level FlightAware ADS-B
Thu 03:10:03 PM 44.1500 -77.8360 281° West 40,000 -19 Level FlightAware ADS-B
Thu 03:10:43 PM 44.1660 -77.9570 280° West 40,000 -19 Level FlightAware ADS-B
Thu 03:11:28 PM 44.1840 -78.0970 280° West 40,000 -20 Level FlightAware ADS-B
Thu 03:12:08 PM 44.2000 -78.2190 280° West 40,000 -20 Level FlightAware ADS-B
Thu 03:12:48 PM 44.2150 -78.3410 280° West 40,000 -20 Level FlightAware ADS-B
Thu 03:13:33 PM 44.2320 -78.4810 280° West 40,000 -20 Level FlightAware ADS-B
Thu 03:14:13 PM 44.2470 -78.5990 280° West 40,000 -20 Level FlightAware ADS-B
Thu 03:14:58 PM 44.2640 -78.7370 280° West 40,000 -20 Level FlightAware ADS-B
Thu 03:15:38 PM 44.2790 -78.8610 280° West 40,000 -20 Level FlightAware ADS-B
Thu 03:16:23 PM 44.2940 -78.9880 279° West 40,000 -21 Level FlightAware ADS-B
Thu 03:17:03 PM 44.3100 -79.1140 280° West 40,000 -21 Level FlightAware ADS-B
Thu 03:17:43 PM 44.3220 -79.2380 278° West 40,000 -21 Level FlightAware ADS-B
Thu 03:18:28 PM 44.3310 -79.3670 276° West 40,100 -21 Climbing FlightAware ADS-B
Thu 03:19:08 PM 44.3390 -79.4970 275° West 40,000 -22 Descending FlightAware ADS-B
Thu 03:19:53 PM 44.3470 -79.6330 275° West 40,000 -21 Level FlightAware ADS-B
Thu 03:20:33 PM 44.3550 -79.7540 275° West 40,000 -22 Level FlightAware ADS-B
Thu 03:21:13 PM 44.3620 -79.8720 275° West 40,000 -22 Level FlightAware ADS-B
Thu 03:21:58 PM 44.3700 -80.0140 275° West 40,000 -22 Level FlightAware ADS-B
Thu 03:22:38 PM 44.3770 -80.1360 275° West 40,000 -22 Level FlightAware ADS-B
Thu 03:23:23 PM 44.3840 -80.2730 274° West 40,000 -22 Level FlightAware ADS-B
Thu 03:24:03 PM 44.3910 -80.3940 275° West 40,000 -22 Level FlightAware ADS-B
Thu 03:24:48 PM 44.3980 -80.5290 274° West 40,000 -23 Level FlightAware ADS-B
Thu 03:25:28 PM 44.4040 -80.6490 274° West 40,000 -23 Level FlightAware ADS-B
Thu 03:26:08 PM 44.4110 -80.7730 275° West 40,000 -23 Level FlightAware ADS-B
Thu 03:26:53 PM 44.4180 -80.9090 274° West 40,000 -23 Level FlightAware ADS-B
Thu 03:27:33 PM 44.4230 -81.0270 273° West 40,000 -23 Level FlightAware ADS-B
Thu 03:28:13 PM 44.4290 -81.1550 274° West 40,000 -23 Level FlightAware ADS-B
Thu 03:28:58 PM 44.4360 -81.2910 274° West 40,000 -24 Level FlightAware ADS-B
Thu 03:29:38 PM 44.4410 -81.4060 274° West 40,000 -24 Level FlightAware ADS-B
Thu 03:30:18 PM 44.4460 -81.5240 273° West 40,000 -24 Level FlightAware ADS-B
Thu 03:31:03 PM 44.4530 -81.6750 274° West 40,000 -24 Level FlightAware ADS-B
Thu 03:31:48 PM 44.4590 -81.8160 273° West 40,000 -24 Level FlightAware ADS-B
Thu 03:32:28 PM 44.4640 -81.9380 273° West 40,000 -25 Level FlightAware ADS-B
Thu 03:33:08 PM 44.4690 -82.0610 273° West 40,000 -25 Level FlightAware ADS-B
Thu 03:33:53 PM 44.4740 -82.1870 273° West 40,000 -25 Level FlightAware ADS-B
Thu 03:34:33 PM 44.4790 -82.3220 273° West 40,000 -25 Level FlightAware ADS-B
Thu 03:35:13 PM 44.4840 -82.4500 273° West 40,000 -26 Level FlightAware ADS-B
Thu 03:35:58 PM 44.4890 -82.5900 273° West 40,000 -26 Level FlightAware ADS-B
Thu 03:36:38 PM 44.4930 -82.7000 273° West 40,000 -26 Level FlightAware ADS-B
Thu 03:37:23 PM 44.4980 -82.8510 273° West 40,000 -26 Level FlightAware ADS-B
Thu 03:37:53 PM 44.5010 -82.9420 273° West 40,000 -26 Level FlightAware ADS-B
Thu 03:38:43 PM 44.5050 -83.0890 272° West 40,000 -27 Level FlightAware ADS-B
Thu 03:39:28 PM 44.5100 -83.2340 273° West 40,000 -27 Level FlightAware ADS-B
Thu 03:40:08 PM 44.5130 -83.3440 272° West 40,000 -27 Level FlightAware ADS-B
Thu 03:40:48 PM 44.5170 -83.4890 272° West 40,000 -27 Level FlightAware ADS-B
Thu 03:41:33 PM 44.5210 -83.6380 272° West 40,000 -28 Level FlightAware ADS-B
Thu 03:42:43 PM 44.5270 -83.8530 272° West 40,000 -28 Level FlightAware ADS-B
Thu 03:43:18 PM 44.5300 -83.9620 272° West 40,000 -29 Level FlightAware ADS-B
Thu 03:43:58 PM 44.5330 -84.0930 272° West 40,000 -29 Level FlightAware ADS-B
Thu 03:44:38 PM 44.5350 -84.2150 271° West 40,000 -29 Level FlightAware ADS-B
Thu 03:46:08 PM 44.5410 -84.5010 272° West 40,000 -29 Level FlightAware ADS-B
Thu 03:46:48 PM 44.5440 -84.6330 272° West 40,000 -30 Level FlightAware ADS-B
Thu 03:48:13 PM 44.5490 -84.8960 272° West 40,000 -30 Level FlightAware ADS-B
Thu 03:49:33 PM 44.5520 -85.1430 271° West 40,000 -31 Level FlightAware ADS-B
Thu 03:51:08 PM 44.5560 -85.4570 271° West 40,000 -32 Level FlightAware ADS-B
Thu 03:51:33 PM 47.4790 -83.0770 29° Northeast 29,600 -32 Descending FlightAware ADS-B
Thu 03:54:23 PM 47.4790 -83.0770 29° Northeast 30,400 137 Climbing FlightAware ADS-B
Thu 03:56:28 PM 44.5630 -86.4410 220° Southwest 40,000 130 Climbing FlightAware ADS-B
Thu 03:58:28 PM 44.5640 -86.8220 270° West 40,000 -35 Level FlightAware ADS-B
Thu 03:59:18 PM 44.5640 -86.9780 270° West 40,000 -37 Level FlightAware ADS-B
Thu 03:59:58 PM 44.5630 -87.0980 269° West 40,000 -37 Level FlightAware ADS-B
Thu 04:00:48 PM 44.5630 -87.2570 270° West 40,000 -38 Level FlightAware ADS-B
Thu 04:01:38 PM 44.5620 -87.4170 270° West 40,000 -38 Level FlightAware ADS-B
Thu 04:02:13 PM 44.5620 -87.5170 270° West 40,000 -39 Level FlightAware ADS-B
Thu 04:02:58 PM 44.5610 -87.6510 269° West 40,000 -39 Level FlightAware ADS-B
Thu 04:07:58 PM 44.6100 -88.5900 275° West 40,000 -40 Level FlightAware ADS-B
Thu 04:08:38 PM 44.6270 -88.7140 281° West 40,000 -45 Level FlightAware ADS-B
Thu 04:09:13 PM 44.6420 -88.8280 281° West 40,000 -45 Level FlightAware ADS-B
Thu 04:10:03 PM 44.6630 -88.9830 281° West 40,000 -46 Level FlightAware ADS-B
Thu 04:10:43 PM 44.6790 -89.1000 281° West 40,000 -47 Level FlightAware ADS-B
Thu 04:11:23 PM 44.6960 -89.2340 280° West 40,000 -47 Level FlightAware ADS-B
Thu 04:12:08 PM 44.7130 -89.3590 281° West 40,000 -48 Level FlightAware ADS-B
Thu 04:12:48 PM 44.7290 -89.4900 280° West 40,000 -49 Level FlightAware ADS-B
Thu 04:13:23 PM 44.7440 -89.6040 281° West 40,000 -50 Level FlightAware ADS-B
Thu 04:14:13 PM 44.7630 -89.7540 280° West 40,000 -51 Level FlightAware ADS-B
Thu 04:15:23 PM 44.7880 -89.9570 280° West 40,000 -52 Level FlightAware ADS-B
Thu 04:16:03 PM 44.8030 -90.0800 280° West 40,000 -53 Level FlightAware ADS-B
Thu 04:16:48 PM 44.8200 -90.2150 280° West 40,000 -54 Level FlightAware ADS-B
Thu 04:17:23 PM 44.8330 -90.3270 279° West 40,000 -55 Level FlightAware ADS-B
Thu 04:18:13 PM 44.8500 -90.4730 279° West 40,000 -56 Level FlightAware ADS-B
Thu 04:18:48 PM 44.8620 -90.5730 280° West 40,000 -58 Level FlightAware ADS-B
Thu 04:19:33 PM 44.8790 -90.7200 279° West 40,000 -59 Level FlightAware ADS-B
Thu 04:20:38 PM 46.7160 -90.0000 15° North 44,200 -60 Climbing FlightAware ADS-B
Thu 04:22:23 PM 46.5250 -90.0000 180° South 44,200 -192 Level FlightAware ADS-B
Thu 04:23:03 PM 46.3350 -90.0000 180° South 44,200 -203 Level FlightAware ADS-B
Thu 04:23:58 PM 44.9680 -91.5140 218° Southwest 40,000 -208 Descending FlightAware ADS-B
Thu 04:24:43 PM 44.9820 -91.6460 279° West 40,000 -69 Level FlightAware ADS-B
Thu 04:25:18 PM 44.9930 -91.7530 278° West 40,000 -71 Level FlightAware ADS-B
Thu 04:26:18 PM 45.0120 -91.9290 279° West 40,000 -73 Level FlightAware ADS-B
Thu 04:27:03 PM 45.0260 -92.0620 279° West 40,000 -75 Level FlightAware ADS-B
Thu 04:27:43 PM 45.0370 -92.1780 278° West 40,000 -77 Level FlightAware ADS-B
Thu 04:28:33 PM 45.0530 -92.3320 278° West 40,000 -79 Level FlightAware ADS-B
Thu 04:29:38 PM 45.0700 -92.5290 277° West 39,100 -82 Descending FlightAware ADS-B
Thu 04:30:03 PM 45.0770 -92.6030 278° West 38,700 -47 Descending FlightAware ADS-B
Thu 04:30:38 PM 46.7160 -90.0000 47° Northeast 28,400 -31 Descending FlightAware ADS-B
Thu 04:31:23 PM 45.0990 -92.8510 232° Southwest 38,000 431 Climbing FlightAware ADS-B
Thu 04:32:08 PM 45.1110 -92.9870 277° West 38,000  Level FlightAware ADS-B
Thu 04:32:53 PM 45.1210 -93.1120 277° West 38,000  Level FlightAware ADS-B
Thu 04:33:33 PM 45.1320 -93.2360 277° West 38,000  Level FlightAware ADS-B
Thu 04:34:18 PM 45.1420 -93.3650 276° West 38,000  Level FlightAware ADS-B
Thu 04:34:58 PM 45.1510 -93.4820 276° West 38,000  Level FlightAware ADS-B
Thu 04:35:43 PM 45.1600 -93.6040 276° West 38,000  Level FlightAware ADS-B
Thu 04:36:23 PM 45.1680 -93.7140 276° West 38,000  Level FlightAware ADS-B
Thu 04:37:03 PM 45.1760 -93.8300 276° West 38,000  Level FlightAware ADS-B
Thu 04:37:43 PM 45.1850 -93.9470 276° West 38,000  Level FlightAware ADS-B
Thu 04:38:28 PM 45.1930 -94.0710 275° West 38,000  Level FlightAware ADS-B
Thu 04:39:13 PM 45.2090 -94.2100 279° West 38,000  Level FlightAware ADS-B
Thu 04:39:53 PM 45.2220 -94.3130 280° West 38,000  Level FlightAware ADS-B
Thu 04:40:33 PM 45.2380 -94.4330 281° West 38,000  Level FlightAware ADS-B
Thu 04:41:13 PM 45.2520 -94.5460 280° West 38,000  Level FlightAware ADS-B
Thu 04:41:58 PM 45.2670 -94.6710 280° West 38,000  Level FlightAware ADS-B
Thu 04:42:38 PM 45.2820 -94.7870 280° West 38,000  Level FlightAware ADS-B
Thu 04:43:23 PM 45.2970 -94.9090 280° West 38,000  Level FlightAware ADS-B
Thu 04:44:03 PM 45.3100 -95.0230 279° West 38,000  Level FlightAware ADS-B
Thu 04:44:48 PM 45.3260 -95.1510 280° West 38,000  Level FlightAware ADS-B
Thu 04:45:48 PM 45.3460 -95.3200 280° West 38,000  Level FlightAware ADS-B
Thu 04:46:38 PM 45.3620 -95.4570 279° West 38,000  Level FlightAware ADS-B
Thu 04:47:23 PM 45.3770 -95.5820 280° West 38,000  Level FlightAware ADS-B
Thu 04:48:03 PM 45.3900 -95.7020 279° West 38,000  Level FlightAware ADS-B
Thu 04:48:48 PM 45.4040 -95.8170 280° West 38,000  Level FlightAware ADS-B
Thu 04:49:28 PM 45.4160 -95.9300 279° West 38,000  Level FlightAware ADS-B
Thu 04:50:08 PM 45.4300 -96.0490 280° West 38,000  Level FlightAware ADS-B
Thu 04:51:23 PM 45.4530 -96.2610 279° West 38,000  Level FlightAware ADS-B
Thu 04:52:18 PM 45.4700 -96.4150 279° West 38,000  Level FlightAware ADS-B
Thu 04:52:53 PM 45.4858 -96.4956 279° West 433 498 38,000  Level Minneapolis Center
Thu 04:53:55 PM 45.5053 -96.6636 279° West 432 497 38,000  Level Minneapolis Center
Thu 04:54:57 PM 45.5261 -96.8653 278° West 431 496 38,000  Level Minneapolis Center
Thu 04:55:59 PM 45.5439 -97.0333 279° West 430 495 38,000  Level Minneapolis Center
Thu 04:57:01 PM 45.5608 -97.2011 278° West 430 495 38,000  Level Minneapolis Center
Thu 04:58:03 PM 45.5783 -97.3631 279° West 421 484 38,000  Level Minneapolis Center
Thu 04:59:06 PM 45.5942 -97.5294 278° West 423 487 38,000  Level Minneapolis Center
Thu 05:00:08 PM 45.6133 -97.7236 278° West 416 479 38,000  Level Minneapolis Center
Thu 05:01:10 PM 45.6294 -97.8886 278° West 420 483 38,000  Level Minneapolis Center
Thu 05:02:12 PM 45.6467 -98.0519 279° West 418 481 38,000  Level Minneapolis Center
Thu 05:03:14 PM 45.6628 -98.2236 278° West 424 488 38,000  Level Minneapolis Center
Thu 05:04:16 PM 45.6772 -98.3897 277° West 424 488 38,000  Level Minneapolis Center
Thu 05:05:18 PM 45.6925 -98.5564 278° West 424 488 38,000  Level Minneapolis Center
Thu 05:06:20 PM 45.7111 -98.7553 278° West 423 487 38,000  Level Minneapolis Center
Thu 05:07:22 PM 45.7250 -98.9231 277° West 424 488 38,000  Level Minneapolis Center
Thu 05:08:24 PM 45.7392 -99.0886 277° West 424 488 38,000  Level Minneapolis Center
Thu 05:09:26 PM 45.7525 -99.2539 277° West 421 484 38,000  Level Minneapolis Center
Thu 05:10:28 PM 45.7669 -99.4219 277° West 424 488 38,000  Level Minneapolis Center
Thu 05:11:31 PM 45.7811 -99.5892 277° West 425 489 38,000  Level Minneapolis Center
Thu 05:12:33 PM 45.7967 -99.7911 276° West 427 491 38,000  Level Minneapolis Center
Thu 05:13:35 PM 45.8100 -99.9606 277° West 429 494 38,000  Level Minneapolis Center
Thu 05:14:37 PM 45.8222 -100.1281 276° West 428 493 38,000  Level Minneapolis Center
Thu 05:15:39 PM 45.8356 -100.2981 276° West 430 495 38,000  Level Minneapolis Center
Thu 05:16:41 PM 45.8475 -100.4694 276° West 433 498 38,000  Level Minneapolis Center
Thu 05:17:43 PM 45.8619 -100.6761 276° West 435 501 38,000  Level Minneapolis Center
Thu 05:18:45 PM 45.8750 -100.8472 276° West 434 499 38,000  Level Minneapolis Center
Thu 05:19:47 PM 45.8861 -101.0189 275° West 434 499 38,000  Level Minneapolis Center
Thu 05:20:49 PM 45.8975 -101.1914 275° West 435 501 38,000  Level Minneapolis Center
Thu 05:21:51 PM 45.9100 -101.3672 276° West 441 507 38,000  Level Minneapolis Center
Thu 05:22:54 PM 45.9214 -101.5400 275° West 437 503 38,000  Level Minneapolis Center
Thu 05:23:56 PM 45.9347 -101.7483 275° West 438 504 38,000  Level Minneapolis Center
Thu 05:24:58 PM 45.9453 -101.9200 275° West 435 501 38,000  Level Minneapolis Center
Thu 05:26:00 PM 45.9564 -102.0933 275° West 437 503 38,000  Level Minneapolis Center
Thu 05:27:02 PM 45.9664 -102.2686 275° West 439 505 38,000  Level Minneapolis Center
Thu 05:28:04 PM 45.9764 -102.4417 275° West 439 505 38,000  Level Minneapolis Center
Thu 05:29:06 PM 45.9858 -102.6167 275° West 439 505 38,000  Level Minneapolis Center
Thu 05:30:08 PM 45.9961 -102.7933 275° West 436 502 38,000  Level Minneapolis Center
Thu 05:31:10 PM 46.0064 -103.0025 274° West 437 503 38,000  Level Minneapolis Center
Thu 05:32:12 PM 46.0147 -103.1794 274° West 442 509 38,000  Level Minneapolis Center
Thu 05:33:14 PM 46.0239 -103.3533 274° West 439 505 38,000  Level Minneapolis Center
Thu 05:34:11 PM 46.0289 -103.5272 272° West 439 505 38,000  Level Salt Lake Center
Thu 05:35:13 PM 46.0375 -103.6997 274° West 436 502 38,000  Level Salt Lake Center
Thu 05:36:15 PM 46.0450 -103.8750 274° West 437 503 38,000  Level Salt Lake Center
Thu 05:37:17 PM 46.0519 -104.0511 273° West 440 506 38,000  Level Salt Lake Center
Thu 05:38:19 PM 46.0592 -104.2303 273° West 446 513 38,000  Level Salt Lake Center
Thu 05:39:21 PM 46.0653 -104.4078 273° West 446 513 38,000  Level Salt Lake Center
Thu 05:40:22 PM 46.0728 -104.6094 273° West 446 513 38,000  Level Salt Lake Center
Thu 05:41:24 PM 46.0794 -104.7819 273° West 449 517 38,000  Level Salt Lake Center
Thu 05:42:26 PM 46.0853 -104.9797 273° West 446 513 38,000  Level Salt Lake Center
Thu 05:43:28 PM 46.0906 -105.1489 273° West 444 511 38,000  Level Salt Lake Center
Thu 05:44:29 PM 46.0950 -105.3486 272° West 446 513 38,000  Level Salt Lake Center
Thu 05:45:31 PM 46.1006 -105.5194 273° West 447 514 38,000  Level Salt Lake Center
Thu 05:46:33 PM 46.1058 -105.7194 272° West 448 516 38,000 194 Level Salt Lake Center
Thu 05:47:35 PM 46.1114 -105.8903 273° West 447 514 38,400 435 Climbing Salt Lake Center
Thu 05:48:37 PM 46.1161 -106.0925 272° West 451 519 38,900 488 Climbing Salt Lake Center
Thu 05:49:38 PM 46.1222 -106.2650 273° West 452 520 39,400 488 Climbing Salt Lake Center
Thu 05:50:40 PM 46.1256 -106.4397 272° West 454 522 39,900 290 Climbing Salt Lake Center
Thu 05:51:42 PM 46.1311 -106.6458 272° West 458 527 40,000 49 Climbing Salt Lake Center
Thu 05:52:43 PM 46.1344 -106.8192 272° West 457 526 40,000  Level Salt Lake Center
Thu 05:53:45 PM 46.1378 -107.0253 271° West 458 527 40,000  Level Salt Lake Center
Thu 05:54:47 PM 46.1408 -107.1978 272° West 455 524 40,000  Level Salt Lake Center
Thu 05:55:49 PM 46.1428 -107.3922 271° West 441 507 40,000  Level Salt Lake Center
Thu 05:56:50 PM 46.1444 -107.5608 271° West 440 506 40,000  Level Salt Lake Center
Thu 05:57:52 PM 46.1461 -107.7561 271° West 439 505 40,000  Level Salt Lake Center
Thu 05:58:54 PM 46.1475 -107.9247 271° West 440 506 40,000  Level Salt Lake Center
Thu 05:59:56 PM 46.1489 -108.1219 271° West 442 509 40,000  Level Salt Lake Center
Thu 06:00:57 PM 46.1503 -108.2894 271° West 439 505 40,000  Level Salt Lake Center
Thu 06:01:59 PM 46.1511 -108.4600 270° West 446 513 40,000  Level Salt Lake Center
Thu 06:03:01 PM 46.1514 -108.6656 270° West 460 529 40,000  Level Salt Lake Center
Thu 06:04:02 PM 46.1514 -108.8364 270° West 446 513 40,000  Level Salt Lake Center
Thu 06:05:04 PM 46.1508 -109.0361 270° West 448 516 40,000  Level Salt Lake Center
Thu 06:06:06 PM 46.1503 -109.2078 270° West 449 517 40,000  Level Salt Lake Center
Thu 06:07:08 PM 46.1503 -109.4103 270° West 454 522 40,000  Level Salt Lake Center
Thu 06:08:09 PM 46.1486 -109.5886 269° West 464 534 40,000  Level Salt Lake Center
Thu 06:09:11 PM 46.1475 -109.8031 270° West 480 552 40,000  Level Salt Lake Center
Thu 06:10:13 PM 46.1431 -109.9839 268° West 475 547 40,000 -484 Level Salt Lake Center
Thu 06:11:15 PM 46.1422 -110.1592 270° West 461 531 39,000 -976 Descending Salt Lake Center
Thu 06:12:16 PM 46.1392 -110.3544 269° West 441 507 38,000 -488 Descending Salt Lake Center
Thu 06:13:18 PM 46.1378 -110.5197 269° West 433 498 38,000  Level Salt Lake Center
Thu 06:14:20 PM 46.1344 -110.7178 269° West 438 504 38,000  Level Salt Lake Center
Thu 06:15:22 PM 46.1311 -110.8972 269° West 451 519 38,000  Level Salt Lake Center
Thu 06:16:23 PM 46.1275 -111.0767 268° West 452 520 38,000  Level Salt Lake Center
Thu 06:17:25 PM 46.1236 -111.2581 268° West 457 526 38,000  Level Salt Lake Center
Thu 06:18:27 PM 46.1194 -111.4383 268° West 457 526 38,000  Level Salt Lake Center
Thu 06:19:29 PM 46.1139 -111.6614 268° West 465 535 38,000  Level Salt Lake Center
Thu 06:20:31 PM 46.1081 -111.8511 268° West 474 545 38,000  Level Salt Lake Center
Thu 06:21:32 PM 46.1036 -112.0425 268° West 478 550 38,000  Level Salt Lake Center
Thu 06:22:34 PM 46.0967 -112.2303 267° West 474 545 38,000  Level Salt Lake Center
Thu 06:23:36 PM 46.0911 -112.4172 268° West 470 541 38,000  Level Salt Lake Center
Thu 06:24:38 PM 46.0847 -112.6056 267° West 470 541 38,000  Level Salt Lake Center
Thu 06:25:40 PM 46.0764 -112.8325 267° West 473 544 38,000  Level Salt Lake Center
Thu 06:26:42 PM 46.0717 -113.0217 268° West 475 547 38,000  Level Salt Lake Center
Thu 06:27:43 PM 46.0644 -113.2117 267° West 474 545 38,000  Level Salt Lake Center
Thu 06:28:45 PM 46.0581 -113.4022 267° West 478 550 38,000  Level Salt Lake Center
Thu 06:29:47 PM 46.0497 -113.5922 266° West 479 551 38,000  Level Salt Lake Center
Thu 06:30:49 PM 46.0400 -113.8036 266° West 492 566 38,000  Level Salt Lake Center
Thu 06:31:50 PM 46.0317 -113.9975 267° West 489 563 38,000  Level Salt Lake Center
Thu 06:32:52 PM 46.0219 -114.1914 266° West 486 559 38,000  Level Salt Lake Center
Thu 06:33:54 PM 46.0108 -114.4089 266° West 493 567 38,000  Level Salt Lake Center
Thu 06:34:56 PM 46.0031 -114.6033 267° West 505 581 38,000  Level Salt Lake Center
Thu 06:35:57 PM 45.9914 -114.8208 266° West 495 570 38,000  Level Salt Lake Center
Thu 06:36:59 PM 45.9808 -115.0064 265° West 489 563 38,000  Level Salt Lake Center
Thu 06:38:01 PM 45.9694 -115.2269 266° West 496 571 38,000  Level Salt Lake Center
Thu 06:39:03 PM 45.9597 -115.4128 266° West 492 566 38,000  Level Salt Lake Center
Thu 06:40:11 PM 45.9458 -115.6056 264° West 482 555 38,000  Level Seattle Center
Thu 06:46:18 PM 45.8500 -116.8390 264° West 38,000  Level FlightAware ADS-B
Thu 06:47:08 PM 45.8390 -116.9920 264° West 38,000  Level FlightAware ADS-B
Thu 06:47:53 PM 45.8270 -117.1430 264° West 38,000  Level FlightAware ADS-B
Thu 06:50:03 PM 45.7930 -117.5620 264° West 38,000  Level FlightAware ADS-B
Thu 06:50:28 PM 45.7860 -117.6380 263° West 38,000  Level FlightAware ADS-B
Thu 06:51:23 PM 45.7720 -117.8140 264° West 38,000  Level FlightAware ADS-B
Thu 06:52:08 PM 45.7580 -117.9750 263° West 38,000  Level FlightAware ADS-B
Thu 06:52:58 PM 45.7440 -118.1280 263° West 38,000  Level FlightAware ADS-B
Thu 06:54:28 PM 45.7180 -118.4230 263° West 38,000  Level FlightAware ADS-B
Thu 06:55:08 PM 45.7070 -118.5450 263° West 38,000  Level FlightAware ADS-B
Thu 06:55:26 PM 45.7039 -118.5833 263° West 491 565 38,000  Level Seattle Center
Thu 06:56:27 PM 45.6856 -118.7775 262° West 495 570 38,000  Level Seattle Center
Thu 06:57:28 PM 45.6675 -118.9711 262° West 493 567 38,000  Level Seattle Center
Thu 06:58:29 PM 45.6483 -119.1639 262° West 493 567 38,000  Level Seattle Center
Thu 06:59:30 PM 45.6294 -119.3558 262° West 491 565 38,000  Level Seattle Center
Thu 07:00:32 PM 45.6094 -119.5433 261° West 483 556 38,000  Level Seattle Center
Thu 07:01:33 PM 45.5894 -119.7339 262° West 488 562 38,000 -246 Level Seattle Center
Thu 07:02:34 PM 45.5658 -119.9631 262° West 491 565 37,500 -1,131 Descending Seattle Center
Thu 07:03:35 PM 45.5453 -120.1511 261° West 486 559 35,700 -1,869 Descending Seattle Center
Thu 07:04:36 PM 45.5250 -120.3322 261° West 472 543 33,700 -1,967 Descending Seattle Center
Thu 07:05:37 PM 45.5153 -120.5086 266° West 455 524 31,700 -1,967 Descending Seattle Center
Thu 07:06:38 PM 45.5192 -120.6758 272° West 429 494 29,700 -2,164 Descending Seattle Center
Thu 07:07:39 PM 45.5217 -120.8281 271° West 399 459 27,300 -2,293 Descending Seattle Center
Thu 07:08:41 PM 45.5233 -120.9689 271° West 367 422 25,000 -2,341 Descending Seattle Center
Thu 07:09:42 PM 45.5253 -121.1133 271° West 364 419 22,500 -2,590 Descending Seattle Center
Thu 07:11:00 PM 45.5167 -121.3420 270° West  Level FlightAware Approximate
Thu 07:11:44 PM 45.5306 -121.4219 270° West 340 391 17,100  Level Seattle Center
Thu 07:12:45 PM 45.5272 -121.5506 268° West 339 390 14,600 -2,557 Descending Seattle Center
Thu 07:13:46 PM 45.5306 -121.6881 272° West 327 376 11,900 -2,628 Descending Seattle Center
Thu 07:14:46 PM 45.5336 -121.8072 272° West 289 333 9,300 -2,182 Descending Seattle Center
Thu 07:15:47 PM 45.5386 -121.9136 274° West 264 304 7,500 -1,475 Descending Seattle Center
Thu 07:16:48 PM 45.5400 -122.0150 271° West 258 297 6,300 -992 Descending Seattle Center
Thu 07:17:48 PM 45.5328 -122.1167 264° West 252 290 5,500 -488 Descending Seattle Center
Thu 07:18:51 PM 45.5278 -122.2144 266° West 261 300 5,300 -836 Descending Seattle Center
Thu 07:19:50 PM 45.5161 -122.3211 261° West 248 285 3,800 -1,279 Descending Seattle Center
Thu 07:20:53 PM 45.5178 -122.4006 272° West 234 269 2,700 -1,190 Descending Seattle Center
Thu 07:21:51 PM 45.5519 -122.4856 300° West 217 250 1,400 -1,109 Descending Seattle Center
Thu 07:22:52 PM 45.5714 -122.5392 297° West 136 157 500 -524 Descending Seattle Center
Thu 07:23:57 PM 45.5928 -122.5900 301° West 186 214 300 -185 Descending Seattle Center

Login

Don't have an account? Register now (free) for customized features, flight alerts, and more!